createdAt,value
2022-09-13T00:00:02.794Z,22.00
2022-09-13T00:05:04.463Z,22.73
2022-09-13T00:10:06.151Z,17.42
2022-09-13T00:15:08.897Z,17.13
2022-09-13T00:20:10.674Z,17.30
2022-09-13T00:25:12.369Z,17.13
2022-09-13T00:30:14.064Z,16.13
2022-09-13T00:35:15.554Z,15.13
2022-09-13T00:40:17.206Z,20.67
2022-09-13T00:45:19.197Z,13.55
2022-09-13T00:50:39.020Z,14.25
2022-09-13T00:56:09.793Z,15.27
2022-09-13T01:01:14.645Z,16.60
2022-09-13T01:06:20.570Z,14.80
2022-09-13T01:11:40.641Z,19.48
2022-09-13T01:16:44.802Z,16.05
2022-09-13T01:22:18.231Z,16.42
2022-09-13T01:27:34.756Z,14.80
2022-09-13T01:32:58.068Z,12.83
2022-09-13T01:38:11.668Z,14.60
2022-09-13T01:43:42.922Z,16.92
2022-09-13T01:49:00.830Z,20.77
2022-09-13T01:54:09.470Z,19.23
2022-09-13T01:59:24.166Z,17.20
2022-09-13T02:04:30.102Z,15.68
2022-09-13T02:09:37.238Z,14.98
2022-09-13T02:19:55.036Z,17.65
2022-09-13T02:25:02.536Z,16.52
2022-09-13T02:30:10.290Z,13.38
2022-09-13T02:35:18.826Z,17.83
2022-09-13T02:40:26.768Z,15.88
2022-09-13T02:45:35.734Z,17.75
2022-09-13T02:51:01.458Z,18.52
2022-09-13T02:56:34.398Z,16.10
2022-09-13T03:01:37.392Z,21.20
2022-09-13T03:06:41.245Z,20.77
2022-09-13T03:12:01.332Z,19.30
2022-09-13T03:17:34.614Z,16.75
2022-09-13T03:22:52.598Z,18.05
2022-09-13T03:28:08.785Z,15.57
2022-09-13T03:33:35.518Z,16.15
2022-09-13T03:38:51.808Z,15.52
2022-09-13T03:43:59.104Z,11.82
2022-09-13T03:49:08.887Z,19.20
2022-09-13T03:54:16.597Z,12.75
2022-09-13T03:59:18.253Z,15.48
2022-09-13T04:04:19.772Z,15.35
2022-09-13T04:09:21.217Z,21.20
2022-09-13T04:14:23.024Z,19.23
2022-09-13T04:19:25.649Z,14.27
2022-09-13T04:24:29.091Z,18.80
2022-09-13T04:29:31.792Z,14.88
2022-09-13T04:34:33.423Z,16.15
2022-09-13T04:39:34.952Z,11.90
2022-09-13T04:44:36.512Z,11.88
2022-09-13T04:49:38.074Z,12.23
2022-09-13T04:54:39.549Z,8.50
2022-09-13T04:59:40.997Z,8.27
2022-09-13T05:04:42.466Z,5.72
2022-09-13T05:09:43.938Z,6.05
2022-09-13T05:14:45.442Z,5.82
2022-09-13T05:19:47.754Z,5.30
2022-09-13T05:24:49.418Z,7.93
2022-09-13T05:29:50.898Z,5.45
2022-09-13T05:34:52.460Z,7.75
2022-09-13T05:40:10.554Z,10.75
2022-09-13T05:45:12.926Z,6.03
2022-09-13T05:50:32.883Z,6.28
2022-09-13T05:55:35.877Z,9.52
2022-09-13T06:00:37.929Z,6.57
2022-09-13T06:05:39.423Z,7.35
2022-09-13T06:10:40.950Z,7.70
2022-09-13T06:15:43.395Z,6.00
2022-09-13T06:20:45.381Z,8.18
2022-09-13T06:25:46.909Z,9.43
2022-09-13T06:30:48.317Z,10.37
2022-09-13T06:35:49.778Z,46.45
2022-09-13T06:41:00.462Z,25.65
2022-09-13T06:46:10.657Z,12.20
2022-09-13T06:51:14.860Z,12.52
2022-09-13T06:56:19.758Z,5.40
2022-09-13T07:01:30.674Z,10.35
2022-09-13T07:06:35.471Z,6.10
2022-09-13T07:11:40.573Z,11.02
2022-09-13T07:16:42.128Z,7.47
2022-09-13T07:21:44.001Z,6.82
2022-09-13T07:26:46.709Z,7.38
2022-09-13T07:31:53.098Z,7.18
2022-09-13T07:36:54.877Z,8.93
2022-09-13T07:41:56.351Z,5.88
2022-09-13T07:46:57.869Z,5.15
2022-09-13T07:51:59.341Z,6.90
2022-09-13T07:57:00.790Z,5.03
2022-09-13T08:02:02.364Z,10.98
2022-09-13T08:07:03.953Z,5.95
2022-09-13T08:12:05.494Z,6.32
2022-09-13T08:17:06.946Z,6.13
2022-09-13T08:22:08.413Z,10.10
2022-09-13T08:27:09.879Z,4.10
2022-09-13T08:32:11.342Z,5.05
2022-09-13T08:37:12.891Z,6.30
2022-09-13T08:42:24.350Z,5.93
2022-09-13T08:47:43.698Z,3.88
2022-09-13T08:52:52.121Z,5.90
2022-09-13T08:58:32.234Z,5.93
2022-09-13T09:03:46.728Z,3.00
2022-09-13T09:09:06.110Z,7.68
2022-09-13T09:14:33.457Z,6.60
2022-09-13T09:19:40.767Z,2.17
2022-09-13T09:24:50.856Z,6.25
2022-09-13T09:29:58.057Z,5.07
2022-09-13T09:35:21.126Z,8.52
2022-09-13T09:40:22.664Z,4.72
2022-09-13T09:45:27.920Z,11.45
2022-09-13T09:50:34.190Z,8.43
2022-09-13T09:55:41.505Z,3.65
2022-09-13T10:00:57.309Z,5.88
2022-09-13T10:06:18.561Z,6.63
2022-09-13T10:11:22.233Z,7.85
2022-09-13T10:16:27.969Z,7.43
2022-09-13T10:21:29.997Z,5.90
2022-09-13T10:26:33.748Z,6.07
2022-09-13T10:31:41.672Z,6.22
2022-09-13T10:36:59.690Z,7.72
2022-09-13T10:42:05.187Z,5.75
2022-09-13T10:47:13.367Z,5.30
2022-09-13T10:52:43.168Z,9.43
2022-09-13T10:57:46.483Z,6.65
2022-09-13T11:03:30.918Z,6.05
2022-09-13T11:08:47.382Z,7.32
2022-09-13T11:13:48.770Z,10.87
2022-09-13T11:19:07.173Z,10.35
2022-09-13T11:24:08.633Z,6.13
2022-09-13T11:29:25.330Z,7.30
2022-09-13T11:34:40.224Z,7.60
2022-09-13T11:39:50.202Z,5.55
2022-09-13T11:45:00.711Z,6.47
2022-09-13T11:50:40.201Z,4.40
2022-09-13T11:55:47.713Z,4.72
2022-09-13T12:00:58.420Z,4.53
2022-09-13T12:06:05.237Z,3.50
2022-09-13T12:16:26.837Z,4.57
2022-09-13T12:21:37.815Z,4.35
2022-09-13T12:26:56.705Z,4.05
2022-09-13T12:32:05.399Z,7.18
2022-09-13T12:37:27.040Z,5.57
2022-09-13T12:42:57.401Z,4.07
2022-09-13T12:48:40.394Z,4.05
2022-09-13T12:54:10.988Z,7.43
2022-09-13T12:59:48.592Z,7.55
2022-09-13T13:09:56.966Z,5.97
2022-09-13T13:15:01.375Z,3.83
2022-09-13T13:20:41.045Z,6.55
2022-09-13T13:25:56.263Z,7.70
2022-09-13T13:30:59.048Z,8.38
2022-09-13T13:36:24.277Z,6.63
2022-09-13T13:41:40.785Z,5.63
2022-09-13T13:46:42.722Z,5.17
2022-09-13T13:51:44.207Z,10.20
2022-09-13T13:56:49.131Z,5.88
2022-09-13T14:01:55.561Z,7.45
2022-09-13T14:07:20.238Z,6.10
2022-09-13T14:12:43.052Z,7.72
2022-09-13T14:18:08.968Z,11.20
2022-09-13T14:23:20.444Z,10.65
2022-09-13T14:28:23.391Z,10.48
2022-09-13T14:33:34.572Z,7.35
2022-09-13T14:38:37.004Z,10.27
2022-09-13T14:43:38.807Z,10.50
2022-09-13T14:48:54.837Z,6.43
2022-09-13T14:54:07.054Z,9.45
2022-09-13T14:59:24.501Z,6.97
2022-09-13T15:04:28.082Z,10.02
2022-09-13T15:09:29.680Z,9.73
2022-09-13T15:14:35.065Z,11.32
2022-09-13T15:19:41.877Z,8.40
2022-09-13T15:24:49.945Z,14.23
2022-09-13T15:30:01.282Z,7.28
2022-09-13T15:35:02.939Z,10.07
2022-09-13T15:40:17.761Z,7.88
2022-09-13T15:45:20.999Z,12.40
2022-09-13T15:50:31.002Z,8.43
2022-09-13T15:55:32.591Z,8.63
2022-09-13T16:00:34.113Z,11.32
2022-09-13T16:05:36.615Z,9.02
2022-09-13T16:10:38.138Z,8.40
2022-09-13T16:15:39.707Z,8.75
2022-09-13T16:20:41.162Z,6.82
2022-09-13T16:25:43.316Z,8.73
2022-09-13T16:30:44.762Z,4.88
2022-09-13T16:35:46.867Z,7.88
2022-09-13T16:40:49.122Z,7.28
2022-09-13T16:45:51.445Z,9.43
2022-09-13T16:50:52.873Z,5.13
2022-09-13T16:56:11.367Z,10.80
2022-09-13T17:01:15.068Z,9.20
2022-09-13T17:06:18.225Z,5.20
2022-09-13T17:11:21.835Z,6.07
2022-09-13T17:16:25.801Z,8.55
2022-09-13T17:21:28.342Z,9.32
2022-09-13T17:26:29.923Z,3.58
2022-09-13T17:31:31.508Z,11.50
2022-09-13T17:36:33.054Z,8.82
2022-09-13T17:41:35.049Z,6.28
2022-09-13T17:46:36.600Z,12.63
2022-09-13T17:51:38.120Z,6.38
2022-09-13T17:56:42.588Z,13.80
2022-09-13T18:01:49.638Z,11.30
2022-09-13T18:06:52.436Z,10.80
2022-09-13T18:11:53.927Z,9.02
2022-09-13T18:16:57.278Z,7.22
2022-09-13T18:22:01.393Z,4.53
2022-09-13T18:27:03.675Z,8.57
2022-09-13T18:32:05.251Z,10.75
2022-09-13T18:37:06.732Z,6.50
2022-09-13T18:42:08.396Z,13.57
2022-09-13T18:47:13.750Z,5.65
2022-09-13T18:52:16.427Z,5.40
2022-09-13T18:57:18.656Z,8.85
2022-09-13T19:02:21.044Z,7.20
2022-09-13T19:07:23.666Z,6.15
2022-09-13T19:12:25.705Z,7.53
2022-09-13T19:17:27.275Z,5.93
2022-09-13T19:22:28.922Z,5.68
2022-09-13T19:27:30.495Z,8.23
2022-09-13T19:32:33.728Z,7.95
2022-09-13T19:37:35.317Z,9.38
2022-09-13T19:42:36.799Z,8.20
2022-09-13T19:48:34.641Z,4.55
2022-09-13T19:52:59.893Z,7.47
2022-09-13T19:58:01.394Z,5.75
2022-09-13T20:03:03.560Z,6.15
2022-09-13T20:08:05.206Z,5.68
2022-09-13T20:13:06.669Z,6.22
2022-09-13T20:18:13.171Z,7.95
2022-09-13T20:23:17.220Z,4.37
2022-09-13T20:28:21.298Z,4.70
2022-09-13T20:33:23.166Z,5.60
2022-09-13T20:38:25.586Z,7.30
2022-09-13T20:43:27.308Z,5.45
2022-09-13T20:48:28.942Z,9.35
2022-09-13T20:53:30.620Z,7.05
2022-09-13T20:58:32.249Z,8.02
2022-09-13T21:03:38.852Z,2.63
2022-09-13T21:08:43.729Z,9.07
2022-09-13T21:13:47.548Z,5.07
2022-09-13T21:18:50.051Z,6.32
2022-09-13T21:23:52.139Z,6.55
2022-09-13T21:28:55.496Z,7.30
2022-09-13T21:34:08.472Z,8.80
2022-09-13T21:39:10.629Z,8.27
2022-09-13T21:44:12.143Z,5.93
2022-09-13T21:49:13.698Z,5.68
2022-09-13T21:54:17.555Z,3.15
2022-09-13T21:59:20.743Z,8.82
2022-09-13T22:04:25.272Z,12.70
2022-09-13T22:09:27.534Z,6.15
2022-09-13T22:14:29.136Z,7.90
2022-09-13T22:19:31.646Z,7.80
2022-09-13T22:24:35.669Z,10.27
2022-09-13T22:29:37.241Z,6.82
2022-09-13T22:34:38.770Z,5.93
2022-09-13T22:39:40.281Z,7.72
2022-09-13T22:44:41.985Z,6.43
2022-09-13T22:49:43.449Z,8.88
2022-09-13T22:54:45.937Z,7.47
2022-09-13T22:59:47.595Z,9.40
2022-09-13T23:04:49.090Z,7.78
2022-09-13T23:09:50.530Z,6.85
2022-09-13T23:14:51.958Z,6.18
2022-09-13T23:19:53.421Z,6.72
2022-09-13T23:24:54.895Z,7.72
2022-09-13T23:29:56.734Z,5.57
2022-09-13T23:34:58.190Z,9.10
2022-09-13T23:40:01.429Z,4.72
2022-09-13T23:45:03.167Z,7.30
2022-09-13T23:50:05.003Z,6.82
2022-09-13T23:55:07.181Z,3.95
